createdAt,value
2022-08-07T00:01:44.099Z,5.45
2022-08-07T00:04:11.250Z,6.85
2022-08-07T00:06:51.957Z,6.18
2022-08-07T00:09:29.169Z,4.85
2022-08-07T00:12:03.633Z,4.38
2022-08-07T00:14:33.688Z,3.80
2022-08-07T00:17:03.058Z,5.18
2022-08-07T00:20:00.380Z,3.85
2022-08-07T00:22:24.491Z,4.63
2022-08-07T00:25:16.466Z,3.35
2022-08-07T00:27:52.411Z,5.18
2022-08-07T00:30:27.197Z,2.00
2022-08-07T00:32:58.410Z,2.15
2022-08-07T00:35:29.906Z,3.20
2022-08-07T00:37:59.126Z,2.47
2022-08-07T00:43:10.583Z,3.63
2022-08-07T00:46:02.260Z,2.47
2022-08-07T00:48:32.372Z,6.95
2022-08-07T00:51:01.789Z,3.38
2022-08-07T00:53:39.175Z,6.20
2022-08-07T00:56:17.559Z,2.30
2022-08-07T00:58:47.187Z,3.30
2022-08-07T01:01:20.585Z,2.78
2022-08-07T01:03:57.391Z,5.38
2022-08-07T01:06:30.820Z,2.25
2022-08-07T01:09:01.519Z,2.15
2022-08-07T01:12:20.800Z,6.32
2022-08-07T01:14:28.760Z,3.03
2022-08-07T01:16:58.163Z,2.85
2022-08-07T01:19:32.518Z,3.88
2022-08-07T01:22:03.073Z,2.72
2022-08-07T01:24:37.175Z,3.22
2022-08-07T01:27:06.699Z,3.20
2022-08-07T01:29:48.139Z,1.52
2022-08-07T01:32:19.174Z,3.38
2022-08-07T01:34:51.768Z,1.80
2022-08-07T01:37:20.132Z,3.00
2022-08-07T01:39:50.793Z,2.63
2022-08-07T01:42:38.410Z,2.50
2022-08-07T01:45:17.740Z,4.30
2022-08-07T01:48:20.647Z,2.75
2022-08-07T01:50:40.287Z,5.18
2022-08-07T01:53:20.967Z,4.35
2022-08-07T01:56:02.765Z,2.53
2022-08-07T01:58:37.523Z,2.75
2022-08-07T02:01:58.949Z,2.90
2022-08-07T02:04:11.888Z,3.08
2022-08-07T02:06:44.105Z,5.88
2022-08-07T02:09:51.618Z,3.15
2022-08-07T02:12:17.949Z,6.07
2022-08-07T02:14:57.578Z,6.50
2022-08-07T02:17:34.058Z,3.88
2022-08-07T02:20:09.635Z,3.97
2022-08-07T02:22:46.333Z,5.55
2022-08-07T02:25:18.350Z,4.80
2022-08-07T02:27:58.604Z,4.45
2022-08-07T02:30:28.277Z,4.03
2022-08-07T02:33:03.908Z,3.97
2022-08-07T02:36:29.969Z,3.22
2022-08-07T02:38:35.843Z,4.00
2022-08-07T02:41:06.039Z,3.72
2022-08-07T02:43:39.600Z,3.95
2022-08-07T02:46:11.129Z,4.78
2022-08-07T02:48:39.864Z,7.10
2022-08-07T02:51:42.052Z,6.90
2022-08-07T02:54:11.322Z,5.50
2022-08-07T02:56:42.400Z,6.40
2022-08-07T02:59:17.318Z,6.03
2022-08-07T03:01:47.218Z,3.08
2022-08-07T03:04:23.120Z,6.00
2022-08-07T03:06:53.132Z,4.55
2022-08-07T03:09:41.852Z,3.38
2022-08-07T03:12:22.174Z,6.43
2022-08-07T03:15:07.908Z,3.67
2022-08-07T03:17:53.609Z,3.50
2022-08-07T03:20:25.512Z,2.63
2022-08-07T03:22:55.033Z,4.60
2022-08-07T03:25:23.915Z,6.40
2022-08-07T03:28:09.499Z,5.82
2022-08-07T03:30:47.443Z,5.78
2022-08-07T03:33:16.990Z,3.25
2022-08-07T03:35:50.385Z,7.13
2022-08-07T03:38:29.663Z,5.53
2022-08-07T03:41:02.404Z,6.95
2022-08-07T03:43:33.571Z,6.22
2022-08-07T03:46:18.105Z,4.30
2022-08-07T03:49:02.037Z,5.85
2022-08-07T03:51:47.286Z,3.00
2022-08-07T03:54:36.279Z,4.35
2022-08-07T03:57:08.944Z,6.78
2022-08-07T03:59:46.497Z,5.68
2022-08-07T04:02:28.750Z,5.45
2022-08-07T04:04:57.910Z,4.57
2022-08-07T04:07:41.721Z,4.10
2022-08-07T04:10:15.579Z,5.00
2022-08-07T04:12:50.384Z,5.70
2022-08-07T04:15:20.282Z,3.80
2022-08-07T04:18:57.825Z,6.63
2022-08-07T04:20:54.425Z,6.57
2022-08-07T04:23:25.651Z,6.13
2022-08-07T04:26:14.050Z,3.50
2022-08-07T04:28:45.405Z,4.32
2022-08-07T04:31:20.304Z,5.70
2022-08-07T04:34:01.955Z,4.85
2022-08-07T04:36:29.777Z,5.18
2022-08-07T04:38:58.612Z,4.75
2022-08-07T04:44:14.602Z,8.77
2022-08-07T04:47:23.461Z,4.45
2022-08-07T04:50:38.452Z,4.90
2022-08-07T04:54:01.069Z,6.40
2022-08-07T04:58:10.888Z,5.70
2022-08-07T05:00:09.562Z,7.63
2022-08-07T05:02:33.190Z,4.30
2022-08-07T05:05:11.410Z,5.82
2022-08-07T05:08:04.829Z,4.97
2022-08-07T05:10:45.618Z,5.20
2022-08-07T05:14:54.050Z,8.25
2022-08-07T05:16:09.401Z,7.25
2022-08-07T05:18:45.552Z,12.18
2022-08-07T05:21:14.842Z,6.97
2022-08-07T05:23:51.796Z,7.70
2022-08-07T05:26:24.945Z,5.03
2022-08-07T05:29:04.313Z,5.43
2022-08-07T05:31:38.695Z,4.22
2022-08-07T05:34:15.708Z,4.68
2022-08-07T05:36:55.227Z,4.82
2022-08-07T05:40:17.874Z,8.40
2022-08-07T05:42:36.712Z,4.85
2022-08-07T05:45:14.358Z,5.78
2022-08-07T05:48:01.777Z,6.60
2022-08-07T05:50:39.609Z,8.00
2022-08-07T05:54:13.643Z,6.07
2022-08-07T05:56:02.040Z,7.43
2022-08-07T05:58:36.522Z,6.03
2022-08-07T06:01:10.500Z,8.45
2022-08-07T06:03:53.977Z,6.50
2022-08-07T06:06:29.569Z,5.20
2022-08-07T06:09:04.594Z,7.22
2022-08-07T06:11:34.850Z,6.35
2022-08-07T06:14:11.762Z,5.05
2022-08-07T06:16:50.254Z,5.43
2022-08-07T06:19:48.032Z,4.15
2022-08-07T06:22:14.628Z,7.55
2022-08-07T06:24:56.784Z,3.92
2022-08-07T06:28:00.171Z,4.25
2022-08-07T06:30:24.211Z,7.43
2022-08-07T06:33:04.490Z,3.85
2022-08-07T06:35:45.391Z,5.50
2022-08-07T06:38:20.086Z,3.33
2022-08-07T06:40:53.388Z,4.15
2022-08-07T06:43:24.982Z,3.20
2022-08-07T06:46:12.193Z,3.67
2022-08-07T06:48:42.151Z,3.55
2022-08-07T06:51:31.279Z,5.85
2022-08-07T06:55:29.150Z,7.32
2022-08-07T07:00:14.421Z,4.78
2022-08-07T07:02:49.168Z,2.78
2022-08-07T07:06:05.138Z,4.82
2022-08-07T07:08:12.516Z,5.78
2022-08-07T07:10:54.680Z,2.95
2022-08-07T07:13:40.860Z,3.88
2022-08-07T07:16:30.033Z,4.03
2022-08-07T07:19:34.018Z,2.67
2022-08-07T07:22:11.961Z,6.80
2022-08-07T07:25:02.620Z,5.25
2022-08-07T07:27:56.083Z,3.13
2022-08-07T07:30:32.602Z,2.33
2022-08-07T07:33:02.614Z,9.23
2022-08-07T07:35:33.563Z,7.40
2022-08-07T07:38:13.598Z,2.67
2022-08-07T07:40:42.684Z,6.65
2022-08-07T07:43:18.811Z,7.88
2022-08-07T07:46:37.883Z,5.32
2022-08-07T07:48:45.522Z,3.40
2022-08-07T07:51:15.629Z,4.55
2022-08-07T07:53:51.302Z,4.70
2022-08-07T07:56:30.545Z,4.90
2022-08-07T07:59:04.517Z,4.28
2022-08-07T08:02:02.047Z,5.47
2022-08-07T08:04:27.504Z,4.30
2022-08-07T08:06:56.262Z,6.10
2022-08-07T08:09:29.167Z,16.30
2022-08-07T08:12:01.796Z,5.90
2022-08-07T08:14:36.835Z,3.28
2022-08-07T08:17:32.482Z,4.10
2022-08-07T08:20:17.708Z,3.67
2022-08-07T08:23:09.780Z,5.93
2022-08-07T08:26:03.316Z,8.02
2022-08-07T08:28:44.921Z,6.10
2022-08-07T08:31:30.398Z,5.50
2022-08-07T08:34:08.354Z,5.30
2022-08-07T08:36:37.414Z,5.32
2022-08-07T08:39:09.048Z,6.80
2022-08-07T08:41:58.682Z,9.20
2022-08-07T08:44:48.781Z,3.47
2022-08-07T08:47:52.908Z,8.95
2022-08-07T08:50:39.280Z,6.18
2022-08-07T08:53:39.362Z,6.30
2022-08-07T08:56:12.088Z,3.75
2022-08-07T08:58:42.548Z,4.93
2022-08-07T09:01:29.794Z,3.92
2022-08-07T09:04:28.617Z,8.98
2022-08-07T09:07:11.342Z,7.80
2022-08-07T09:10:08.094Z,10.52
2022-08-07T09:13:17.409Z,6.82
2022-08-07T09:16:20.512Z,13.20
2022-08-07T09:18:58.376Z,9.10
2022-08-07T09:22:09.667Z,5.38
2022-08-07T09:25:07.077Z,6.57
2022-08-07T09:28:05.088Z,4.80
2022-08-07T09:30:55.009Z,8.50
2022-08-07T09:34:21.569Z,5.10
2022-08-07T09:36:58.299Z,8.07
2022-08-07T09:39:55.328Z,13.23
2022-08-07T09:42:54.413Z,8.80
2022-08-07T09:47:25.997Z,7.85
2022-08-07T09:48:56.059Z,7.97
2022-08-07T09:52:09.701Z,8.13
2022-08-07T09:54:58.193Z,10.82
2022-08-07T09:57:47.445Z,3.10
2022-08-07T10:00:18.833Z,7.22
2022-08-07T10:02:55.739Z,4.00
2022-08-07T10:06:00.120Z,8.45
2022-08-07T10:08:35.857Z,6.35
2022-08-07T10:12:01.484Z,4.75
2022-08-07T10:14:55.113Z,6.18
2022-08-07T10:18:01.293Z,6.15
2022-08-07T10:21:19.636Z,9.73
2022-08-07T10:24:08.775Z,7.32
2022-08-07T10:26:53.833Z,14.90
2022-08-07T10:29:31.856Z,4.60
2022-08-07T10:32:31.569Z,7.00
2022-08-07T10:35:53.662Z,12.05
2022-08-07T10:38:36.050Z,6.78
2022-08-07T10:41:47.325Z,4.78
2022-08-07T10:44:38.499Z,4.68
2022-08-07T10:47:53.575Z,6.43
2022-08-07T10:50:42.484Z,4.82
2022-08-07T10:53:23.623Z,2.33
2022-08-07T10:56:02.718Z,5.63
2022-08-07T10:59:21.102Z,9.00
2022-08-07T11:02:04.960Z,8.55
2022-08-07T11:04:58.123Z,4.38
2022-08-07T11:08:00.504Z,3.45
2022-08-07T11:10:30.062Z,6.13
2022-08-07T11:14:44.046Z,2.53
2022-08-07T11:16:37.401Z,8.27
2022-08-07T11:19:27.495Z,3.60
2022-08-07T11:22:26.404Z,5.63
2022-08-07T11:25:16.540Z,2.45
2022-08-07T11:28:21.268Z,6.82
2022-08-07T11:31:11.307Z,4.50
2022-08-07T11:34:01.026Z,7.70
2022-08-07T11:36:39.678Z,6.45
2022-08-07T11:39:25.968Z,4.63
2022-08-07T11:42:33.935Z,5.15
2022-08-07T11:45:40.661Z,5.43
2022-08-07T11:49:04.350Z,7.55
2022-08-07T11:51:46.887Z,4.85
2022-08-07T11:54:42.178Z,5.30
2022-08-07T11:58:00.372Z,6.20
2022-08-07T12:00:30.223Z,4.13
2022-08-07T12:03:41.753Z,6.60
2022-08-07T12:06:37.554Z,4.80
2022-08-07T12:09:27.521Z,5.97
2022-08-07T12:12:11.641Z,6.85
2022-08-07T12:15:02.002Z,4.43
2022-08-07T12:17:59.247Z,5.45
2022-08-07T12:20:36.707Z,6.85
2022-08-07T12:23:09.114Z,4.30
2022-08-07T12:26:23.028Z,2.65
2022-08-07T12:29:09.823Z,6.25
2022-08-07T12:32:03.687Z,2.63
2022-08-07T12:34:36.127Z,5.90
2022-08-07T12:37:08.217Z,6.45
2022-08-07T12:39:42.363Z,6.25
2022-08-07T12:42:13.257Z,8.27
2022-08-07T12:44:45.190Z,7.97
2022-08-07T12:47:26.969Z,8.35
2022-08-07T12:50:39.952Z,5.75
2022-08-07T12:53:27.588Z,5.88
2022-08-07T12:56:26.626Z,4.80
2022-08-07T12:58:58.103Z,4.28
2022-08-07T13:01:32.921Z,2.38
2022-08-07T13:04:34.252Z,4.25
2022-08-07T13:08:12.789Z,2.60
2022-08-07T13:10:37.615Z,3.13
2022-08-07T13:13:47.352Z,2.92
2022-08-07T13:16:46.725Z,1.83
2022-08-07T13:19:50.932Z,3.83
2022-08-07T13:22:40.158Z,4.22
2022-08-07T13:25:32.026Z,1.90
2022-08-07T13:28:18.459Z,1.50
2022-08-07T13:31:01.616Z,2.33
2022-08-07T13:34:34.552Z,1.13
2022-08-07T13:36:56.177Z,4.00
2022-08-07T13:40:34.048Z,5.43
2022-08-07T13:42:26.866Z,5.18
2022-08-07T13:45:20.754Z,1.63
2022-08-07T13:48:06.411Z,4.68
2022-08-07T13:50:44.487Z,3.08
2022-08-07T13:53:36.027Z,3.58
2022-08-07T13:56:20.254Z,4.32
2022-08-07T13:59:12.131Z,5.20
2022-08-07T14:02:07.962Z,3.05
2022-08-07T14:04:49.644Z,3.88
2022-08-07T14:07:24.858Z,5.57
2022-08-07T14:10:02.489Z,4.45
2022-08-07T14:12:57.748Z,2.92
2022-08-07T14:15:35.085Z,3.15
2022-08-07T14:18:23.707Z,2.07
2022-08-07T14:21:21.081Z,2.50
2022-08-07T14:24:08.849Z,3.85
2022-08-07T14:26:50.322Z,3.88
2022-08-07T14:30:04.819Z,6.50
2022-08-07T14:32:20.832Z,3.03
2022-08-07T14:34:54.419Z,2.58
2022-08-07T14:37:23.827Z,3.60
2022-08-07T14:40:16.470Z,5.85
2022-08-07T14:43:58.833Z,3.80
2022-08-07T14:45:59.318Z,4.95
2022-08-07T14:48:40.535Z,3.67
2022-08-07T14:51:15.868Z,5.18
2022-08-07T14:54:08.938Z,5.80
2022-08-07T14:56:34.340Z,2.15
2022-08-07T15:04:53.311Z,3.40
2022-08-07T15:07:24.126Z,5.78
2022-08-07T15:13:25.487Z,4.20
2022-08-07T15:16:11.197Z,5.60
2022-08-07T15:18:51.581Z,5.78
2022-08-07T15:21:58.659Z,4.35
2022-08-07T15:25:12.790Z,11.02
2022-08-07T15:27:26.254Z,2.80
2022-08-07T15:30:16.233Z,5.68
2022-08-07T15:33:01.254Z,9.27
2022-08-07T15:36:01.407Z,8.05
2022-08-07T15:38:30.817Z,3.97
2022-08-07T15:41:23.640Z,4.07
2022-08-07T15:44:10.210Z,4.35
2022-08-07T15:46:51.702Z,4.15
2022-08-07T15:50:05.069Z,3.65
2022-08-07T15:52:20.853Z,8.00
2022-08-07T15:54:51.489Z,5.30
2022-08-07T15:57:48.123Z,5.07
2022-08-07T16:00:31.896Z,5.28
2022-08-07T16:03:22.193Z,4.15
2022-08-07T16:06:04.555Z,2.25
2022-08-07T16:11:26.815Z,5.13
2022-08-07T16:14:12.919Z,3.47
2022-08-07T16:18:01.763Z,3.88
2022-08-07T16:20:33.985Z,1.90
2022-08-07T16:23:54.640Z,3.85
2022-08-07T16:26:33.014Z,6.30
2022-08-07T16:30:11.802Z,4.03
2022-08-07T16:32:46.189Z,5.00
2022-08-07T16:35:58.450Z,4.60
2022-08-07T16:39:00.106Z,5.30
2022-08-07T16:41:54.478Z,7.90
2022-08-07T16:45:14.409Z,5.22
2022-08-07T16:47:56.697Z,5.63
2022-08-07T16:50:38.915Z,3.45
2022-08-07T16:53:48.287Z,5.22
2022-08-07T16:56:45.133Z,6.32
2022-08-07T16:59:24.765Z,3.92
2022-08-07T17:03:04.908Z,5.80
2022-08-07T17:06:28.167Z,4.43
2022-08-07T17:09:14.000Z,3.88
2022-08-07T17:12:04.303Z,4.13
2022-08-07T17:15:15.994Z,5.82
2022-08-07T17:17:47.953Z,4.28
2022-08-07T17:20:41.851Z,5.47
2022-08-07T17:23:14.011Z,5.63
2022-08-07T17:26:24.178Z,6.75
2022-08-07T17:28:57.604Z,3.95
2022-08-07T17:31:44.253Z,2.97
2022-08-07T17:35:33.070Z,4.10
2022-08-07T17:38:06.686Z,5.63
2022-08-07T17:41:12.278Z,5.15
2022-08-07T17:44:08.377Z,4.60
2022-08-07T17:46:58.450Z,3.33
2022-08-07T17:50:01.801Z,4.25
2022-08-07T17:52:52.245Z,4.82
2022-08-07T17:56:01.194Z,4.80
2022-08-07T17:58:31.759Z,2.88
2022-08-07T18:04:42.529Z,6.80
2022-08-07T18:07:28.678Z,6.80
2022-08-07T18:10:32.586Z,2.95
2022-08-07T18:13:11.686Z,5.82
2022-08-07T18:16:13.020Z,6.18
2022-08-07T18:21:08.597Z,7.00
2022-08-07T18:22:00.529Z,2.25
2022-08-07T18:24:43.175Z,4.63
2022-08-07T18:27:22.911Z,6.45
2022-08-07T18:30:07.818Z,3.72
2022-08-07T18:33:15.408Z,5.00
2022-08-07T18:36:05.972Z,5.55
2022-08-07T18:40:04.902Z,7.20
2022-08-07T18:42:16.983Z,3.80
2022-08-07T18:48:01.399Z,4.45
2022-08-07T18:51:16.129Z,3.72
2022-08-07T18:54:31.128Z,3.85
2022-08-07T18:57:30.206Z,3.47
2022-08-07T19:00:32.975Z,3.83
2022-08-07T19:03:03.095Z,4.03
2022-08-07T19:06:02.292Z,4.30
2022-08-07T19:08:54.438Z,4.03
2022-08-07T19:12:05.201Z,7.43
2022-08-07T19:15:01.349Z,6.47
2022-08-07T19:18:01.116Z,5.80
2022-08-07T19:21:09.242Z,7.07
2022-08-07T19:23:58.638Z,4.60
2022-08-07T19:27:09.229Z,7.00
2022-08-07T19:31:00.622Z,9.45
2022-08-07T19:32:28.900Z,5.77
2022-08-07T19:35:03.127Z,5.85
2022-08-07T19:37:55.546Z,8.35
2022-08-07T19:40:31.809Z,4.20
2022-08-07T19:43:11.019Z,7.10
2022-08-07T19:46:07.560Z,5.03
2022-08-07T19:48:42.625Z,4.82
2022-08-07T19:51:19.845Z,4.97
2022-08-07T19:54:31.356Z,2.28
2022-08-07T19:57:50.909Z,7.82
2022-08-07T19:59:41.527Z,7.80
2022-08-07T20:02:19.656Z,6.50
2022-08-07T20:05:00.535Z,8.25
2022-08-07T20:07:47.977Z,7.22
2022-08-07T20:10:38.190Z,9.38
2022-08-07T20:13:26.970Z,4.50
2022-08-07T20:15:58.385Z,6.80
2022-08-07T20:18:32.444Z,3.30
2022-08-07T20:21:02.591Z,7.93
2022-08-07T20:23:40.826Z,12.00
2022-08-07T20:26:13.036Z,6.20
2022-08-07T20:28:52.600Z,7.53
2022-08-07T20:31:24.856Z,5.30
2022-08-07T20:33:57.518Z,8.73
2022-08-07T20:36:29.682Z,3.42
2022-08-07T20:39:00.619Z,10.25
2022-08-07T20:41:48.688Z,11.68
2022-08-07T20:44:18.167Z,11.27
2022-08-07T20:46:48.741Z,11.23
2022-08-07T20:50:00.795Z,11.63
2022-08-07T20:52:50.442Z,12.27
2022-08-07T20:55:24.340Z,12.73
2022-08-07T20:58:03.330Z,5.57
2022-08-07T21:00:49.970Z,8.38
2022-08-07T21:03:25.584Z,5.25
2022-08-07T21:06:21.467Z,5.90
2022-08-07T21:09:10.490Z,6.00
2022-08-07T21:11:50.119Z,6.17
2022-08-07T21:14:32.756Z,11.10
2022-08-07T21:18:02.817Z,9.15
2022-08-07T21:20:00.829Z,7.07
2022-08-07T21:22:53.318Z,10.35
2022-08-07T21:25:42.444Z,10.35
2022-08-07T21:28:48.625Z,10.45
2022-08-07T21:32:43.159Z,12.43
2022-08-07T21:34:33.398Z,7.40
2022-08-07T21:37:22.898Z,8.05
2022-08-07T21:40:28.920Z,11.02
2022-08-07T21:43:10.580Z,5.88
2022-08-07T21:46:07.806Z,9.10
2022-08-07T21:49:14.493Z,6.57
2022-08-07T21:52:02.187Z,19.63
2022-08-07T21:55:13.650Z,12.27
2022-08-07T21:58:06.914Z,12.65
2022-08-07T22:00:38.100Z,12.57
2022-08-07T22:03:31.584Z,15.32
2022-08-07T22:06:06.192Z,16.02
2022-08-07T22:08:40.432Z,10.65
2022-08-07T22:11:17.679Z,12.20
2022-08-07T22:13:54.881Z,16.02
2022-08-07T22:16:46.898Z,12.95
2022-08-07T22:19:23.533Z,8.30
2022-08-07T22:22:21.310Z,14.52
2022-08-07T22:25:12.024Z,12.05
2022-08-07T22:28:30.275Z,10.93
2022-08-07T22:31:56.016Z,14.13
2022-08-07T22:34:28.874Z,19.75
2022-08-07T22:37:22.727Z,15.73
2022-08-07T22:40:11.357Z,15.02
2022-08-07T22:42:41.494Z,13.75
2022-08-07T22:46:04.038Z,14.25
2022-08-07T22:48:13.960Z,11.23
2022-08-07T22:51:31.930Z,10.98
2022-08-07T22:54:15.020Z,14.85
2022-08-07T22:57:19.929Z,16.33
2022-08-07T23:00:28.571Z,15.40
2022-08-07T23:03:17.920Z,13.27
2022-08-07T23:06:07.306Z,13.98
2022-08-07T23:10:06.455Z,16.02
2022-08-07T23:12:06.604Z,16.95
2022-08-07T23:14:49.085Z,25.02
2022-08-07T23:17:29.058Z,8.23
2022-08-07T23:20:40.461Z,14.35
2022-08-07T23:24:06.005Z,21.55
2022-08-07T23:26:19.151Z,11.25
2022-08-07T23:30:35.588Z,12.60
2022-08-07T23:34:21.734Z,16.20
2022-08-07T23:35:37.401Z,13.35
2022-08-07T23:38:42.807Z,11.38
2022-08-07T23:41:47.406Z,11.20
2022-08-07T23:45:03.582Z,15.07
2022-08-07T23:48:03.264Z,18.98
2022-08-07T23:50:39.196Z,9.60
2022-08-07T23:53:51.361Z,10.68
2022-08-07T23:56:21.177Z,12.07
2022-08-07T23:59:10.286Z,14.40
